Austinburg, Pennsylvania
Current Conditions -  °F | °C
As of 10:55 AM on Thursday 23 Oct 2014 (Local Time) from KN38 Reporting Station
Overcast Overcast  
Wind Chill: 37°   Ceiling: 1400
Heat Index: 45°   Visibility: 10mi
Dew Point: 41°   Wind: 17mph
Humidity: 87%   Direction: 340°NNW
Pressure: 29.99"   Gusts: 32mph
Location:  41.9659°N, 77.4284°W
Report Text: KN38 231455Z AUTO 34015G28KT 10SM OVC014 07/05 A2999 RMK AO2
Loading
Personal Weather Stations






























Interactive Weather Map
Tropical Storm Tracking
New forecast layout! Learn more

10-Day Weather Forecast

Advertisements
Track Severe Weather on mobile